Time;durP1;ratioP1;P1;durP2;ratioP2;P2;SDS_P1;SDS_P2;PMS_P1;PMS_P2;Temp;Humidity;BMP_temperature;BMP_pressure;BME280_temperature;BME280_humidity;BME280_pressure;Samples;Min_cycle;Max_cycle;Signal;HPM_P1;HPM_P2
2021/01/31 00:02:25;;;;;;;27.57;13.27;;;-0.30;91.00;;;;;;5071658;28;20036;-81
2021/01/31 00:04:51;;;;;;;25.60;11.60;;;-0.30;91.10;;;;;;5071873;28;20037;-81
2021/01/31 00:07:18;;;;;;;25.97;13.63;;;-0.30;91.10;;;;;;5055094;28;20029;-81
2021/01/31 00:09:44;;;;;;;25.27;12.53;;;-0.40;91.10;;;;;;5054700;28;20436;-80
2021/01/31 00:12:11;;;;;;;30.17;12.43;;;-0.30;91.10;;;;;;5072712;28;20290;-81
2021/01/31 00:14:37;;;;;;;28.30;13.37;;;-0.30;91.10;;;;;;5071892;28;20294;-81
2021/01/31 00:17:04;;;;;;;26.90;12.50;;;-0.40;91.10;;;;;;5071906;28;20279;-81
2021/01/31 00:19:30;;;;;;;24.40;11.47;;;-0.40;91.20;;;;;;5054824;28;20477;-81
2021/01/31 00:22:01;;;;;;;28.60;14.23;;;-0.40;91.20;;;;;;5071510;28;20281;-81
2021/01/31 00:24:28;;;;;;;32.20;14.50;;;-0.40;91.20;;;;;;5072758;28;20021;-81
2021/01/31 00:26:54;;;;;;;29.80;13.27;;;-0.40;91.20;;;;;;5071288;28;20328;-81
2021/01/31 00:29:19;;;;;;;29.17;13.27;;;-0.50;91.20;;;;;;5054618;28;20279;-81
2021/01/31 00:31:49;;;;;;;27.97;13.53;;;-0.50;91.20;;;;;;5071212;28;20029;-81
2021/01/31 00:34:16;;;;;;;28.80;14.07;;;-0.50;91.30;;;;;;5072646;28;20103;-81
2021/01/31 00:36:44;;;;;;;23.47;11.67;;;-0.50;91.30;;;;;;5071533;28;20263;-81
2021/01/31 00:39:09;;;;;;;25.07;12.17;;;-0.50;91.30;;;;;;5072631;28;20302;-81
2021/01/31 00:41:36;;;;;;;28.43;14.73;;;-0.60;91.30;;;;;;5072559;28;20286;-81
2021/01/31 00:44:03;;;;;;;27.77;12.63;;;-0.50;91.40;;;;;;5072940;28;20086;-81
2021/01/31 00:46:33;;;;;;;29.30;14.17;;;-0.50;91.40;;;;;;5074992;28;20279;-81
2021/01/31 00:48:59;;;;;;;27.43;13.50;;;-0.60;91.40;;;;;;5076065;28;20394;-81
2021/01/31 00:51:24;;;;;;;28.87;14.27;;;-0.60;91.40;;;;;;5058072;28;20944;-81
2021/01/31 00:53:50;;;;;;;31.30;15.40;;;-0.60;91.40;;;;;;5075780;28;20052;-81
2021/01/31 00:56:16;;;;;;;39.23;16.23;;;-0.60;91.50;;;;;;5074784;28;20037;-81
2021/01/31 00:58:44;;;;;;;31.87;13.57;;;-0.60;91.50;;;;;;5076067;28;20027;-81
2021/01/31 01:01:09;;;;;;;30.10;14.13;;;-0.60;91.50;;;;;;5074820;28;20078;-81
2021/01/31 01:03:35;;;;;;;30.17;14.33;;;-0.70;91.40;;;;;;5074644;28;20310;-81
2021/01/31 01:06:01;;;;;;;33.33;13.73;;;-0.70;91.50;;;;;;5057775;28;20457;-82
2021/01/31 01:08:26;;;;;;;29.40;13.80;;;-0.70;91.50;;;;;;5074543;28;20029;-81
2021/01/31 01:10:52;;;;;;;28.47;13.17;;;-0.70;91.50;;;;;;5057697;28;20028;-81
2021/01/31 01:13:17;;;;;;;27.57;13.40;;;-0.80;91.40;;;;;;5057690;28;20469;-82
2021/01/31 01:15:43;;;;;;;27.50;13.33;;;-0.80;91.50;;;;;;5057645;28;20032;-81
2021/01/31 01:18:09;;;;;;;31.13;13.00;;;-0.80;91.50;;;;;;5074297;28;20029;-81
2021/01/31 01:20:34;;;;;;;30.33;14.33;;;-0.80;91.60;;;;;;5074421;28;20460;-81
2021/01/31 01:23:00;;;;;;;27.20;12.73;;;-0.80;91.60;;;;;;5075477;28;20112;-81
2021/01/31 01:25:26;;;;;;;28.23;13.43;;;-0.80;91.60;;;;;;5057604;28;20365;-81
2021/01/31 01:27:53;;;;;;;28.97;13.43;;;-0.80;91.70;;;;;;5074114;28;20028;-81
2021/01/31 01:30:22;;;;;;;29.50;14.80;;;-0.90;91.70;;;;;;5057700;28;20279;-81
2021/01/31 01:32:48;;;;;;;34.07;15.37;;;-0.90;91.80;;;;;;5073836;28;20647;-81
2021/01/31 01:35:13;;;;;;;28.87;14.97;;;-0.90;91.70;;;;;;5057439;28;20278;-82
2021/01/31 01:37:39;;;;;;;32.73;14.83;;;-0.90;91.80;;;;;;5073782;28;20396;-82
2021/01/31 01:40:09;;;;;;;33.67;15.17;;;-0.90;91.80;;;;;;5073704;28;20028;-82
2021/01/31 01:42:34;;;;;;;30.73;14.03;;;-0.90;91.90;;;;;;5074903;28;20032;-82
2021/01/31 01:45:00;;;;;;;31.90;14.23;;;-1.00;91.80;;;;;;5073899;28;20285;-82
2021/01/31 01:47:29;;;;;;;31.50;15.37;;;-1.00;91.90;;;;;;5073716;28;20063;-81
2021/01/31 01:50:04;;;;;;;27.57;13.70;;;-1.00;91.90;;;;;;5075020;28;20052;-81
2021/01/31 01:52:35;;;;;;;32.20;14.13;;;-1.00;91.90;;;;;;5074829;28;20836;-82
2021/01/31 01:55:16;;;;;;;28.83;13.63;;;-1.00;92.00;;;;;;5073632;28;20275;-81
2021/01/31 01:57:56;;;;;;;28.17;13.57;;;-1.00;92.00;;;;;;5074894;28;20282;-81
2021/01/31 02:00:22;;;;;;;30.73;14.97;;;-1.00;92.10;;;;;;5074762;28;20285;-81
2021/01/31 02:03:05;;;;;;;30.00;13.83;;;-1.00;92.10;;;;;;5073563;28;20279;-81
2021/01/31 02:05:32;;;;;;;27.10;13.45;;;-1.00;92.10;;;;;;5074921;28;20324;-83
2021/01/31 02:07:58;;;;;;;32.83;14.97;;;-1.00;92.20;;;;;;5073387;28;20028;-83
2021/01/31 02:10:25;;;;;;;29.47;14.53;;;-1.00;92.10;;;;;;5073421;28;20314;-83
2021/01/31 02:12:56;;;;;;;30.23;13.60;;;-1.10;92.10;;;;;;5073399;28;20267;-83
2021/01/31 02:15:21;;;;;;;32.17;14.73;;;-1.10;92.10;;;;;;5074461;28;20310;-83
2021/01/31 02:18:07;;;;;;;26.70;12.90;;;-1.10;92.10;;;;;;5073502;28;20274;-83
2021/01/31 02:21:10;;;;;;;31.47;14.13;;;-1.10;92.10;;;;;;5073213;28;20020;-81
2021/01/31 02:23:55;;;;;;;28.87;12.60;;;-1.10;92.20;;;;;;5073049;28;20741;-82
2021/01/31 02:26:32;;;;;;;27.63;13.17;;;-1.10;92.20;;;;;;5073059;28;20274;-82
2021/01/31 02:29:49;;;;;;;25.73;12.43;;;-1.10;92.30;;;;;;5072983;28;20361;-82
2021/01/31 02:32:54;;;;;;;30.30;13.33;;;-1.10;92.20;;;;;;5050436;28;20287;-82
2021/01/31 02:35:24;;;;;;;24.03;11.57;;;-1.10;92.30;;;;;;5072721;28;20283;-82
2021/01/31 02:37:59;;;;;;;25.77;12.23;;;-1.10;92.20;;;;;;5072835;28;20362;-82
2021/01/31 02:40:29;;;;;;;31.07;14.13;;;-1.20;92.30;;;;;;5072898;28;20314;-82
2021/01/31 02:43:17;;;;;;;27.90;13.97;;;-1.10;92.60;;;;;;5074169;28;20301;-82
2021/01/31 02:45:50;;;;;;;29.40;13.23;;;-1.20;92.30;;;;;;5074187;28;20279;-82
2021/01/31 02:48:17;;;;;;;30.43;13.87;;;-1.10;92.40;;;;;;5073338;28;20373;-83
2021/01/31 02:50:49;;;;;;;28.53;13.73;;;-1.20;92.30;;;;;;5074839;28;20299;-82
2021/01/31 02:53:25;;;;;;;27.13;12.03;;;-1.20;92.30;;;;;;5074146;28;20707;-82
2021/01/31 02:56:04;;;;;;;32.13;13.87;;;-1.20;92.30;;;;;;5072707;28;20769;-82
2021/01/31 02:58:42;;;;;;;27.83;13.27;;;-1.20;92.30;;;;;;5072655;28;20279;-82
2021/01/31 03:01:22;;;;;;;28.27;13.47;;;-1.20;92.30;;;;;;5073807;28;20289;-82
2021/01/31 03:04:14;;;;;;;25.83;12.00;;;-1.20;92.30;;;;;;5073806;28;20282;-82
2021/01/31 03:06:50;;;;;;;28.53;13.07;;;-1.30;92.50;;;;;;5072109;28;20282;-83
2021/01/31 03:09:33;;;;;;;27.83;12.90;;;-1.30;92.30;;;;;;5072429;28;20274;-82
2021/01/31 03:12:08;;;;;;;27.47;12.50;;;-1.30;92.30;;;;;;5073565;28;20351;-82
2021/01/31 03:14:41;;;;;;;26.10;13.03;;;-1.30;92.30;;;;;;5072129;28;20279;-82
2021/01/31 03:17:17;;;;;;;22.97;10.73;;;-1.30;92.40;;;;;;5073473;28;20278;-82
2021/01/31 03:19:55;;;;;;;26.87;12.23;;;-1.30;92.40;;;;;;5072192;28;20792;-82
2021/01/31 03:22:27;;;;;;;28.00;13.17;;;-1.30;92.40;;;;;;5072168;28;20661;-82
2021/01/31 03:25:10;;;;;;;28.43;11.93;;;-1.30;92.30;;;;;;5072091;28;20285;-82
2021/01/31 03:27:39;;;;;;;32.40;14.33;;;-1.40;92.30;;;;;;5073258;28;20778;-82
2021/01/31 03:30:07;;;;;;;27.07;12.53;;;-1.40;92.30;;;;;;5073289;28;20293;-83
2021/01/31 03:32:43;;;;;;;31.07;13.37;;;-1.40;92.40;;;;;;5071942;28;20290;-82
2021/01/31 03:35:13;;;;;;;28.27;12.77;;;-1.40;92.70;;;;;;5071988;28;20294;-82
2021/01/31 03:38:14;;;;;;;27.80;11.93;;;-1.50;92.50;;;;;;5071979;28;20332;-83
2021/01/31 03:40:43;;;;;;;27.80;11.93;;;-1.50;92.50;;;;;;5068713;28;20286;-82
2021/01/31 03:43:09;;;;;;;26.67;12.20;;;-1.50;92.60;;;;;;5071874;28;20271;-82
2021/01/31 03:46:00;;;;;;;25.17;11.27;;;-1.50;92.50;;;;;;5071932;28;20293;-82
2021/01/31 03:48:29;;;;;;;32.87;13.30;;;-1.50;92.50;;;;;;5072039;28;20029;-83
2021/01/31 03:50:55;;;;;;;27.77;12.37;;;-1.50;92.60;;;;;;5071908;28;20282;-82
2021/01/31 03:53:21;;;;;;;24.80;11.77;;;-1.50;92.50;;;;;;5071814;28;20322;-82
2021/01/31 03:55:48;;;;;;;28.67;13.53;;;-1.50;92.50;;;;;;5071681;28;20028;-82
2021/01/31 03:58:17;;;;;;;28.23;11.80;;;-1.50;92.50;;;;;;5055014;28;20032;-82
2021/01/31 04:00:51;;;;;;;31.07;12.93;;;-1.50;92.60;;;;;;5071787;28;20271;-82
2021/01/31 04:03:26;;;;;;;31.77;14.60;;;-1.50;92.60;;;;;;5071798;28;20278;-82
2021/01/31 04:05:58;;;;;;;29.57;13.97;;;-1.50;92.60;;;;;;5071981;28;20384;-76
2021/01/31 04:08:24;;;;;;;24.50;11.23;;;-1.50;92.60;;;;;;5071583;28;20730;-77
2021/01/31 04:10:50;;;;;;;24.20;11.93;;;-1.50;92.60;;;;;;5054660;28;20287;-77
2021/01/31 04:13:18;;;;;;;28.23;12.30;;;-1.60;92.50;;;;;;5054908;28;20285;-77
2021/01/31 04:15:54;;;;;;;29.07;13.77;;;-1.60;92.60;;;;;;5072629;28;20279;-77
2021/01/31 04:18:22;;;;;;;28.33;13.23;;;-1.60;92.70;;;;;;5072874;28;20270;-76
2021/01/31 04:20:48;;;;;;;26.43;12.53;;;-1.60;92.60;;;;;;5074782;28;20275;-76
2021/01/31 04:23:15;;;;;;;27.53;12.17;;;-1.60;92.60;;;;;;5076521;28;20769;-77
2021/01/31 04:25:41;;;;;;;29.17;13.20;;;-1.60;92.60;;;;;;5075371;28;20278;-77
2021/01/31 04:28:10;;;;;;;28.27;13.07;;;-1.60;92.60;;;;;;5075295;28;20758;-77
2021/01/31 04:30:41;;;;;;;31.90;12.77;;;-1.60;92.60;;;;;;5075180;28;20332;-82
2021/01/31 04:33:07;;;;;;;32.30;14.20;;;-1.60;92.70;;;;;;5075090;28;20769;-82
2021/01/31 04:35:33;;;;;;;30.00;14.73;;;-1.60;92.70;;;;;;5075142;28;20415;-82
2021/01/31 04:37:59;;;;;;;30.77;13.27;;;-1.60;92.70;;;;;;5075108;28;20278;-82
2021/01/31 04:40:26;;;;;;;28.73;12.77;;;-1.70;92.70;;;;;;5075323;28;20033;-82
2021/01/31 04:42:52;;;;;;;30.00;13.63;;;-1.70;92.70;;;;;;5076378;28;20028;-82
2021/01/31 04:45:18;;;;;;;27.80;12.97;;;-1.60;92.80;;;;;;5058326;28;20291;-82
2021/01/31 04:48:19;;;;;;;31.77;14.47;;;-1.70;92.80;;;;;;5075251;28;20037;-82
2021/01/31 04:50:50;;;;;;;31.30;14.17;;;-1.60;92.80;;;;;;5073655;28;20335;-77
2021/01/31 04:53:54;;;;;;;33.43;14.80;;;-1.70;92.70;;;;;;5074752;28;20332;-77
2021/01/31 04:56:43;;;;;;;30.73;13.43;;;-1.70;92.80;;;;;;5075037;28;20285;-77
2021/01/31 04:59:35;;;;;;;28.57;12.73;;;-1.70;92.80;;;;;;5076087;28;20270;-82
2021/01/31 05:02:21;;;;;;;27.43;12.70;;;-1.70;92.80;;;;;;5074506;28;20301;-82
2021/01/31 05:04:56;;;;;;;27.00;12.00;;;-1.70;92.80;;;;;;5075448;28;20721;-82
2021/01/31 05:07:37;;;;;;;26.97;12.70;;;-1.70;92.90;;;;;;5073358;28;20354;-82
2021/01/31 05:10:05;;;;;;;27.23;12.47;;;-1.70;92.90;;;;;;5074815;28;20277;-83
2021/01/31 05:12:56;;;;;;;28.37;12.43;;;-1.70;92.90;;;;;;5058040;28;20279;-82
2021/01/31 05:15:27;;;;;;;26.97;12.47;;;-1.70;92.90;;;;;;5073562;28;20275;-82
2021/01/31 05:17:56;;;;;;;29.40;12.77;;;-1.80;92.80;;;;;;5074528;28;20789;-77
2021/01/31 05:20:25;;;;;;;28.63;13.73;;;-1.80;92.80;;;;;;5074368;28;20271;-77
2021/01/31 05:22:53;;;;;;;28.30;12.37;;;-1.80;92.90;;;;;;5075539;28;20362;-77
2021/01/31 05:25:22;;;;;;;28.33;11.40;;;-1.80;92.90;;;;;;5074078;28;20824;-77
2021/01/31 05:27:52;;;;;;;26.73;12.00;;;-1.80;92.90;;;;;;5074251;28;20656;-77
2021/01/31 05:30:18;;;;;;;25.43;12.10;;;-1.80;92.90;;;;;;5073814;28;20304;-77
2021/01/31 05:33:04;;;;;;;26.00;11.93;;;-1.90;92.90;;;;;;5057346;28;20287;-77
2021/01/31 05:35:33;;;;;;;31.57;13.37;;;-1.90;92.90;;;;;;5075190;28;20067;-77
2021/01/31 05:37:59;;;;;;;26.87;11.77;;;-1.90;92.90;;;;;;5074216;28;20650;-77
2021/01/31 05:40:36;;;;;;;24.37;11.43;;;-1.90;92.90;;;;;;5057379;28;20271;-77
2021/01/31 05:43:04;;;;;;;29.93;12.90;;;-1.90;92.90;;;;;;5075399;28;20025;-77
2021/01/31 05:45:39;;;;;;;26.77;12.27;;;-1.90;93.00;;;;;;5073878;28;20281;-77
2021/01/31 05:48:25;;;;;;;29.57;12.60;;;-1.90;93.00;;;;;;5075123;28;20766;-77
2021/01/31 05:50:52;;;;;;;26.73;12.53;;;-1.90;93.00;;;;;;5073992;28;20287;-76
2021/01/31 05:53:32;;;;;;;28.90;13.07;;;-2.00;93.00;;;;;;5072575;28;20326;-77
2021/01/31 05:56:26;;;;;;;28.93;12.70;;;-1.90;93.00;;;;;;5071856;28;20306;-77
2021/01/31 05:59:08;;;;;;;23.63;11.38;;;-1.90;93.00;;;;;;5073035;28;20283;-77
2021/01/31 06:01:48;;;;;;;27.07;11.60;;;-2.00;93.00;;;;;;5073523;28;20021;-77
2021/01/31 06:04:15;;;;;;;31.53;12.37;;;-2.00;92.90;;;;;;5072716;28;20642;-77
2021/01/31 06:06:43;;;;;;;33.67;13.47;;;-2.00;92.90;;;;;;5056520;28;20278;-77
2021/01/31 06:09:20;;;;;;;28.83;12.70;;;-2.00;93.00;;;;;;5073391;28;20290;-77
2021/01/31 06:11:47;;;;;;;28.60;12.90;;;-2.00;93.00;;;;;;5073208;28;20816;-77
2021/01/31 06:14:25;;;;;;;25.20;11.97;;;-2.00;93.00;;;;;;5056871;28;20778;-77
2021/01/31 06:17:03;;;;;;;29.50;13.00;;;-2.00;92.90;;;;;;5073373;28;20267;-76
2021/01/31 06:19:41;;;;;;;29.00;11.93;;;-2.10;92.90;;;;;;5073754;28;20271;-77
2021/01/31 06:22:10;;;;;;;31.83;13.57;;;-2.10;92.90;;;;;;5075051;28;20680;-77
2021/01/31 06:24:48;;;;;;;30.63;13.43;;;-2.10;93.00;;;;;;5076975;28;20286;-76
2021/01/31 06:27:28;;;;;;;30.20;13.60;;;-2.10;93.00;;;;;;5094265;28;20330;-76
2021/01/31 06:30:10;;;;;;;32.43;13.33;;;-2.10;93.10;;;;;;5093661;28;20286;-76
2021/01/31 06:32:36;;;;;;;31.23;13.10;;;-2.10;93.10;;;;;;5091879;28;20286;-77
2021/01/31 06:35:09;;;;;;;30.53;13.83;;;-2.10;93.10;;;;;;5076288;28;20357;-77
2021/01/31 06:38:02;;;;;;;28.77;12.13;;;-2.10;93.10;;;;;;5093308;28;20012;-78
2021/01/31 06:40:46;;;;;;;33.63;13.37;;;-2.10;93.30;;;;;;5092214;28;20031;-77
2021/01/31 06:43:33;;;;;;;28.65;13.25;;;-2.20;93.00;;;;;;5092265;28;20266;-77
2021/01/31 06:46:09;;;;;;;30.13;13.60;;;-2.20;93.10;;;;;;5092917;28;20028;-76
2021/01/31 06:48:59;;;;;;;32.27;14.53;;;-2.20;93.10;;;;;;5092645;28;20773;-77
2021/01/31 06:51:46;;;;;;;29.27;13.40;;;-2.20;93.10;;;;;;5092639;28;20313;-76
2021/01/31 06:54:31;;;;;;;28.37;12.23;;;-2.20;93.10;;;;;;5092677;28;20286;-77
2021/01/31 06:57:27;;;;;;;27.70;12.20;;;-2.20;93.10;;;;;;5092865;28;20281;-77
2021/01/31 07:00:28;;;;;;;26.33;11.00;;;-2.30;93.10;;;;;;5092888;28;20329;-76
2021/01/31 07:03:31;;;;;;;29.10;12.90;;;-2.30;93.10;;;;;;5092838;28;20331;-77
2021/01/31 07:05:57;;;;;;;32.13;12.00;;;-2.30;93.20;;;;;;5092601;28;20274;-76
2021/01/31 07:09:06;;;;;;;31.20;13.17;;;-2.30;93.20;;;;;;5093968;28;20270;-76
2021/01/31 07:11:36;;;;;;;30.80;13.83;;;-2.30;93.20;;;;;;5081821;28;20497;-76
2021/01/31 07:14:26;;;;;;;31.37;13.93;;;-2.20;93.30;;;;;;5093843;28;20749;-76
2021/01/31 07:16:57;;;;;;;31.03;12.40;;;-2.30;93.20;;;;;;5087753;28;20329;-76
2021/01/31 07:19:39;;;;;;;30.73;12.87;;;-2.30;93.20;;;;;;5086557;28;20341;-77
2021/01/31 07:22:20;;;;;;;28.77;12.23;;;-2.30;93.20;;;;;;5092254;28;20258;-76
2021/01/31 07:25:15;;;;;;;29.70;13.03;;;-2.30;93.20;;;;;;5093901;28;20308;-77
2021/01/31 07:28:02;;;;;;;30.30;12.13;;;-2.30;93.30;;;;;;5093525;28;20277;-77
2021/01/31 07:30:31;;;;;;;30.10;12.70;;;-2.30;93.30;;;;;;5092273;28;20274;-77
2021/01/31 07:33:21;;;;;;;29.47;12.97;;;-2.30;93.30;;;;;;5092098;28;20285;-77
2021/01/31 07:36:05;;;;;;;30.80;13.50;;;-2.30;93.30;;;;;;5075329;28;20774;-76
2021/01/31 07:38:40;;;;;;;32.70;14.38;;;-2.30;93.40;;;;;;5080401;28;20287;-76
2021/01/31 07:41:07;;;;;;;31.07;13.57;;;-2.30;93.50;;;;;;5071775;28;20116;-76
2021/01/31 07:43:35;;;;;;;32.80;15.83;;;-2.30;93.50;;;;;;5083133;28;20499;-76
2021/01/31 07:46:08;;;;;;;27.27;12.87;;;-2.30;93.50;;;;;;5081356;28;20275;-76
2021/01/31 07:48:51;;;;;;;26.67;13.23;;;-2.20;93.60;;;;;;5075020;28;20758;-76
2021/01/31 07:51:39;;;;;;;29.57;12.03;;;-2.30;93.50;;;;;;5075164;28;20619;-76
2021/01/31 07:54:21;;;;;;;27.93;11.87;;;-2.20;93.60;;;;;;5075273;28;20352;-77
2021/01/31 07:56:47;;;;;;;27.47;12.70;;;-2.20;93.60;;;;;;5090463;28;20265;-76
2021/01/31 07:59:13;;;;;;;28.63;12.33;;;-2.10;93.60;;;;;;5099861;28;20683;-75
2021/01/31 08:01:41;;;;;;;29.70;13.73;;;-2.20;93.60;;;;;;5098481;28;20305;-76
2021/01/31 08:04:33;;;;;;;31.07;13.23;;;-2.10;93.70;;;;;;5098369;28;20032;-76
2021/01/31 08:07:04;;;;;;;26.97;11.83;;;-2.10;93.70;;;;;;5092809;28;20274;-76
2021/01/31 08:09:30;;;;;;;32.13;14.03;;;-2.10;93.80;;;;;;5098154;28;20356;-76
2021/01/31 08:12:28;;;;;;;34.37;14.80;;;-2.00;93.80;;;;;;5087860;28;20300;-77
2021/01/31 08:15:12;;;;;;;31.03;13.70;;;-2.00;93.80;;;;;;5076660;28;20032;-76
2021/01/31 08:17:51;;;;;;;27.63;12.73;;;-1.90;93.90;;;;;;5098345;28;20611;-77
2021/01/31 08:20:17;;;;;;;29.23;12.70;;;-1.90;93.90;;;;;;5095464;28;20021;-76
2021/01/31 08:22:44;;;;;;;27.53;12.23;;;-1.80;93.90;;;;;;5092438;28;20335;-76
2021/01/31 08:25:10;;;;;;;30.03;13.53;;;-1.70;94.00;;;;;;5085019;28;20024;-76
2021/01/31 08:27:40;;;;;;;30.73;13.37;;;-1.70;94.00;;;;;;5084131;28;20284;-76
2021/01/31 08:30:20;;;;;;;30.07;13.20;;;-1.60;94.10;;;;;;5078091;28;20902;-76
2021/01/31 08:32:58;;;;;;;28.20;12.97;;;-1.60;94.10;;;;;;5078863;28;20361;-77
2021/01/31 08:35:37;;;;;;;24.40;12.20;;;-1.50;94.20;;;;;;5077799;28;20404;-76
2021/01/31 08:38:24;;;;;;;29.17;13.40;;;-1.40;94.20;;;;;;5084979;28;20287;-76
2021/01/31 08:41:02;;;;;;;28.50;13.70;;;-1.30;94.20;;;;;;5080038;28;20331;-74
2021/01/31 08:43:38;;;;;;;26.70;13.50;;;-1.30;94.20;;;;;;5077095;28;20267;-74
2021/01/31 08:46:59;;;;;;;27.63;12.37;;;-1.20;94.30;;;;;;5095300;28;20274;-75
2021/01/31 08:49:25;;;;;;;25.30;11.70;;;-1.10;94.20;;;;;;5057068;28;20278;-75
2021/01/31 08:52:11;;;;;;;29.27;14.17;;;-1.00;94.20;;;;;;5059761;28;20654;-76
2021/01/31 08:54:37;;;;;;;27.80;12.53;;;-1.00;94.20;;;;;;5082268;28;20036;-75
2021/01/31 08:57:04;;;;;;;27.57;13.17;;;-0.80;94.30;;;;;;5098001;28;20361;-75
2021/01/31 08:59:39;;;;;;;31.57;14.17;;;-0.80;94.30;;;;;;5098920;28;20096;-75
2021/01/31 09:02:13;;;;;;;26.80;13.60;;;-0.80;94.20;;;;;;5097871;28;20365;-76
2021/01/31 09:05:03;;;;;;;26.90;13.40;;;-0.70;94.20;;;;;;5080181;28;20329;-75
2021/01/31 09:07:35;;;;;;;30.40;12.97;;;-0.60;94.30;;;;;;5072997;28;20298;-76
2021/01/31 09:10:12;;;;;;;24.63;12.53;;;-0.50;94.20;;;;;;5074546;28;20399;-75
2021/01/31 09:12:38;;;;;;;24.77;12.47;;;-0.40;94.20;;;;;;5074490;28;20650;-75
2021/01/31 09:15:06;;;;;;;25.50;11.97;;;-0.40;94.10;;;;;;5074269;28;20287;-75
2021/01/31 09:17:31;;;;;;;27.53;13.97;;;-0.30;94.10;;;;;;5075778;28;20016;-78
2021/01/31 09:20:11;;;;;;;28.87;13.83;;;-0.30;93.80;;;;;;5057713;28;20270;-77
2021/01/31 09:22:43;;;;;;;25.57;13.17;;;-0.30;93.80;;;;;;5074475;28;20025;-76
2021/01/31 09:25:11;;;;;;;28.33;13.47;;;-0.20;93.90;;;;;;5074717;28;20056;-76
2021/01/31 09:27:46;;;;;;;28.00;13.67;;;-0.20;93.70;;;;;;5074249;28;20020;-77
2021/01/31 09:30:14;;;;;;;30.33;14.50;;;-0.10;93.70;;;;;;5074352;28;20075;-77
2021/01/31 09:32:49;;;;;;;25.93;13.17;;;0.00;93.50;;;;;;5073849;28;20047;-77
2021/01/31 09:35:27;;;;;;;27.40;12.93;;;0.00;93.60;;;;;;5073927;28;20099;-76
2021/01/31 09:38:12;;;;;;;29.07;13.57;;;0.00;93.60;;;;;;5073880;28;20115;-77
2021/01/31 09:40:40;;;;;;;23.17;12.40;;;0.10;93.50;;;;;;5073877;28;20062;-77
2021/01/31 09:43:15;;;;;;;25.23;12.27;;;0.20;93.60;;;;;;5092596;28;20020;-77
2021/01/31 09:45:44;;;;;;;24.73;13.07;;;0.20;93.60;;;;;;5094152;28;20127;-76
2021/01/31 09:48:12;;;;;;;26.23;13.00;;;0.30;93.50;;;;;;5094578;28;20137;-77
2021/01/31 09:50:38;;;;;;;27.50;13.77;;;0.40;93.50;;;;;;5094636;28;20062;-77
2021/01/31 09:53:05;;;;;;;28.37;14.20;;;0.50;93.60;;;;;;5077267;28;20075;-77
2021/01/31 09:55:44;;;;;;;28.03;14.53;;;0.80;93.80;;;;;;5094551;28;20111;-77
2021/01/31 09:58:21;;;;;;;29.87;13.77;;;1.00;94.00;;;;;;5095370;28;20024;-74
2021/01/31 10:00:48;;;;;;;25.40;12.53;;;1.30;94.10;;;;;;5094185;28;20020;-75
2021/01/31 10:03:31;;;;;;;20.87;12.00;;;1.70;94.60;;;;;;5090945;28;20024;-76
2021/01/31 10:06:08;;;;;;;21.83;11.77;;;2.00;94.80;;;;;;5093726;28;20055;-75
2021/01/31 10:08:36;;;;;;;24.37;13.27;;;2.30;94.90;;;;;;5093388;28;20028;-75
2021/01/31 10:11:23;;;;;;;23.60;12.30;;;2.70;94.70;;;;;;5093942;28;20032;-76
2021/01/31 10:13:49;;;;;;;20.73;11.43;;;2.90;94.50;;;;;;5093635;28;20036;-75
2021/01/31 10:16:18;;;;;;;20.43;12.50;;;3.20;94.50;;;;;;5059590;28;20391;-76
2021/01/31 10:18:44;;;;;;;22.50;13.57;;;3.50;94.40;;;;;;5093074;28;20031;-76
2021/01/31 10:21:24;;;;;;;22.23;13.00;;;3.70;93.60;;;;;;5076668;28;20024;-75
2021/01/31 10:23:59;;;;;;;22.93;13.83;;;4.00;93.10;;;;;;5082545;28;20494;-76
2021/01/31 10:26:25;;;;;;;19.87;12.27;;;4.20;92.60;;;;;;5074453;28;20028;-76
2021/01/31 10:29:06;;;;;;;20.70;12.17;;;4.60;92.90;;;;;;5072795;28;20025;-76
2021/01/31 10:31:35;;;;;;;21.00;11.90;;;5.00;93.20;;;;;;5072934;28;20427;-76
2021/01/31 10:34:12;;;;;;;20.43;11.57;;;5.50;93.40;;;;;;5079187;28;20430;-76
2021/01/31 10:36:44;;;;;;;17.43;10.73;;;6.00;93.30;;;;;;5090123;28;20036;-76
2021/01/31 10:39:10;;;;;;;17.43;11.30;;;6.50;93.30;;;;;;5073165;28;20024;-75
2021/01/31 10:41:46;;;;;;;16.30;11.30;;;6.90;93.00;;;;;;5072858;28;20020;-76
2021/01/31 10:44:21;;;;;;;16.93;11.00;;;7.30;91.90;;;;;;5074228;28;20020;-75
2021/01/31 10:46:47;;;;;;;16.27;10.60;;;7.30;91.20;;;;;;5074419;28;20483;-76
2021/01/31 10:49:12;;;;;;;17.47;11.83;;;7.40;90.80;;;;;;5072963;28;20020;-75
2021/01/31 10:51:41;;;;;;;17.37;11.57;;;7.70;90.00;;;;;;5056045;28;20041;-75
2021/01/31 10:54:08;;;;;;;19.27;12.35;;;7.80;89.00;;;;;;5072319;28;20052;-76
2021/01/31 10:56:33;;;;;;;17.85;11.40;;;8.10;88.70;;;;;;5075487;28;20128;-75
2021/01/31 10:58:59;;;;;;;16.55;11.15;;;8.30;87.60;;;;;;5069162;28;20049;-75
2021/01/31 11:01:25;;;;;;;17.17;10.90;;;8.50;86.60;;;;;;5078700;28;20032;-75
2021/01/31 11:03:51;;;;;;;17.15;10.90;;;8.80;85.60;;;;;;5086583;28;20032;-75
2021/01/31 11:06:20;;;;;;;16.80;10.95;;;9.00;83.90;;;;;;5075863;28;20025;-75
2021/01/31 11:08:46;;;;;;;14.93;10.00;;;9.30;82.20;;;;;;5092477;28;20028;-75
2021/01/31 11:11:11;;;;;;;15.90;10.55;;;9.40;81.20;;;;;;5093595;28;20035;-75
2021/01/31 11:13:37;;;;;;;13.93;9.57;;;9.60;79.80;;;;;;5058858;28;20463;-75
2021/01/31 11:16:03;;;;;;;15.77;11.35;;;9.70;78.80;;;;;;5073779;28;20126;-75
2021/01/31 11:18:29;;;;;;;14.52;10.10;;;10.00;77.20;;;;;;5082564;28;20055;-75
2021/01/31 11:20:55;;;;;;;15.13;9.65;;;10.40;76.30;;;;;;5064343;28;20107;-75
2021/01/31 11:23:21;;;;;;;15.60;10.13;;;10.60;74.70;;;;;;5082197;28;20080;-76
2021/01/31 11:25:47;;;;;;;13.98;9.57;;;10.80;73.40;;;;;;5073532;28;20123;-76
2021/01/31 11:28:13;;;;;;;14.23;9.27;;;11.00;72.80;;;;;;5083864;28;20056;-75
2021/01/31 11:30:38;;;;;;;13.60;10.15;;;11.30;71.70;;;;;;5051058;28;20078;-75
2021/01/31 11:33:04;;;;;;;12.40;9.45;;;11.50;70.40;;;;;;5054718;28;20123;-76
2021/01/31 11:35:31;;;;;;;13.65;9.77;;;11.70;69.20;;;;;;5071955;28;20131;-74
2021/01/31 11:37:57;;;;;;;13.23;9.43;;;12.10;69.30;;;;;;5073068;28;20046;-75
2021/01/31 11:40:25;;;;;;;12.80;9.88;;;12.40;66.50;;;;;;5073350;28;20021;-75
2021/01/31 11:42:51;;;;;;;13.07;9.65;;;12.70;66.40;;;;;;5073084;28;20028;-75
2021/01/31 11:45:18;;;;;;;13.93;10.38;;;13.00;65.60;;;;;;5073181;28;20028;-75
2021/01/31 11:47:44;;;;;;;12.30;9.02;;;13.10;64.30;;;;;;5055354;28;20040;-75
2021/01/31 11:50:12;;;;;;;11.70;8.50;;;13.40;63.30;;;;;;5071851;28;20036;-75
2021/01/31 11:52:37;;;;;;;11.50;8.95;;;13.90;62.90;;;;;;5072856;28;20107;-75
2021/01/31 11:55:05;;;;;;;11.38;9.15;;;14.30;62.70;;;;;;5054931;28;20448;-75
2021/01/31 11:57:31;;;;;;;11.35;8.13;;;14.70;61.80;;;;;;5071777;28;20369;-75
2021/01/31 11:59:56;;;;;;;12.68;8.75;;;15.10;60.10;;;;;;5071698;28;20028;-75
2021/01/31 12:02:22;;;;;;;10.65;8.40;;;15.40;57.90;;;;;;5072995;28;20063;-75
2021/01/31 12:04:48;;;;;;;12.55;9.68;;;15.60;56.40;;;;;;5054840;28;20029;-75
2021/01/31 12:07:13;;;;;;;10.25;7.55;;;15.80;53.60;;;;;;5071952;28;20040;-75
2021/01/31 12:09:39;;;;;;;10.75;8.10;;;16.10;54.00;;;;;;5071716;28;20392;-75
2021/01/31 12:12:06;;;;;;;10.65;8.98;;;16.30;53.20;;;;;;5055004;28;20467;-75
2021/01/31 12:14:32;;;;;;;11.52;8.85;;;16.60;52.30;;;;;;5055275;28;20427;-74
2021/01/31 12:16:58;;;;;;;9.85;7.85;;;17.00;51.80;;;;;;5054872;28;20058;-76
2021/01/31 12:19:23;;;;;;;10.32;8.27;;;17.30;50.70;;;;;;5072864;28;20028;-75
2021/01/31 12:21:52;;;;;;;10.27;7.68;;;17.40;50.60;;;;;;5071549;28;20131;-75
2021/01/31 12:24:18;;;;;;;11.68;7.82;;;17.70;49.00;;;;;;5038247;28;20271;-75
2021/01/31 12:26:45;;;;;;;11.70;8.00;;;17.80;48.60;;;;;;5071506;28;20036;-75
2021/01/31 12:29:15;;;;;;;11.90;7.80;;;17.90;47.90;;;;;;5055003;28;20472;-75
2021/01/31 12:31:41;;;;;;;11.43;7.45;;;18.10;47.00;;;;;;5072571;28;20033;-75
2021/01/31 12:34:06;;;;;;;9.02;6.82;;;18.30;47.50;;;;;;5054532;28;20032;-75
2021/01/31 12:36:32;;;;;;;8.50;6.47;;;18.60;47.10;;;;;;5038159;28;20049;-75
2021/01/31 12:38:57;;;;;;;8.88;6.70;;;18.90;46.30;;;;;;5054493;28;20516;-75
2021/01/31 12:41:23;;;;;;;9.18;6.80;;;19.10;45.30;;;;;;5074931;28;20120;-76
2021/01/31 12:43:49;;;;;;;10.38;7.15;;;19.50;45.20;;;;;;5076421;28;20053;-76
2021/01/31 12:46:15;;;;;;;9.93;6.70;;;19.60;44.30;;;;;;5058402;28;20067;-75
2021/01/31 12:48:40;;;;;;;8.90;6.60;;;19.90;43.70;;;;;;5076118;28;20477;-75
2021/01/31 12:51:06;;;;;;;9.20;6.40;;;20.10;42.80;;;;;;5058118;28;20021;-76
2021/01/31 12:53:31;;;;;;;9.80;7.10;;;20.10;42.50;;;;;;5075864;28;20048;-75
2021/01/31 12:55:57;;;;;;;9.82;7.85;;;19.90;41.80;;;;;;5058069;28;20472;-75
2021/01/31 12:58:23;;;;;;;10.43;7.70;;;19.50;41.00;;;;;;5041490;28;20028;-75
2021/01/31 13:00:48;;;;;;;9.27;6.43;;;18.80;39.90;;;;;;5058140;28;20027;-75